createdAt,value
2018-06-28T00:01:08.220Z,19.30
2018-06-28T00:03:35.694Z,19.30
2018-06-28T00:06:03.156Z,19.40
2018-06-28T00:08:30.624Z,19.10
2018-06-28T00:10:58.188Z,19.10
2018-06-28T00:13:25.758Z,19.00
2018-06-28T00:15:53.321Z,19.00
2018-06-28T00:18:20.772Z,19.00
2018-06-28T00:20:48.244Z,18.50
2018-06-28T00:23:15.806Z,18.80
2018-06-28T00:25:43.365Z,18.70
2018-06-28T00:28:10.840Z,18.50
2018-06-28T00:30:39.807Z,18.60
2018-06-28T00:33:07.263Z,18.60
2018-06-28T00:35:34.746Z,19.00
2018-06-28T00:38:02.210Z,18.60
2018-06-28T00:40:29.781Z,18.60
2018-06-28T00:42:58.741Z,18.90
2018-06-28T00:45:26.831Z,18.90
2018-06-28T00:47:54.320Z,18.50
2018-06-28T00:50:21.798Z,18.60
2018-06-28T00:52:49.247Z,18.60
2018-06-28T00:55:17.475Z,18.30
2018-06-28T00:57:44.931Z,18.30
2018-06-28T01:00:13.167Z,18.30
2018-06-28T01:02:41.379Z,18.50
2018-06-28T01:05:08.849Z,18.50
2018-06-28T01:07:36.367Z,18.40
2018-06-28T01:10:03.924Z,18.40
2018-06-28T01:12:31.385Z,18.30
2018-06-28T01:14:58.955Z,18.30
2018-06-28T01:17:26.412Z,18.20
2018-06-28T01:19:53.880Z,18.20
2018-06-28T01:22:21.340Z,18.30
2018-06-28T01:24:49.576Z,18.30
2018-06-28T01:27:17.137Z,18.30
2018-06-28T01:29:44.645Z,18.10
2018-06-28T01:32:12.097Z,18.20
2018-06-28T01:34:39.562Z,18.40
2018-06-28T01:37:07.023Z,18.40
2018-06-28T01:39:34.489Z,18.30
2018-06-28T01:42:16.834Z,18.00
2018-06-28T01:44:45.064Z,17.90
2018-06-28T01:47:12.633Z,17.90
2018-06-28T01:49:40.080Z,18.10
2018-06-28T01:52:07.567Z,18.10
2018-06-28T01:54:35.121Z,18.00
2018-06-28T01:57:02.594Z,17.90
2018-06-28T01:59:30.039Z,17.90
2018-06-28T02:01:57.526Z,17.70
2018-06-28T02:04:25.078Z,17.70
2018-06-28T02:06:52.548Z,17.80
2018-06-28T02:09:20.831Z,17.70
2018-06-28T02:11:48.338Z,17.70
2018-06-28T02:14:15.843Z,17.40
2018-06-28T02:16:43.351Z,17.60
2018-06-28T02:19:10.818Z,17.70
2018-06-28T02:21:38.276Z,17.80
2018-06-28T02:24:05.786Z,17.80
2018-06-28T02:26:33.312Z,17.60
2018-06-28T02:29:00.859Z,17.90
2018-06-28T02:31:29.079Z,17.80
2018-06-28T02:33:56.698Z,17.80
2018-06-28T02:36:24.980Z,17.30
2018-06-28T02:38:53.260Z,17.30
2018-06-28T02:41:21.527Z,17.10
2018-06-28T02:43:49.058Z,17.10
2018-06-28T02:46:16.522Z,17.40
2018-06-28T02:48:43.972Z,17.30
2018-06-28T02:51:11.432Z,17.50
2018-06-28T02:53:39.057Z,17.40
2018-06-28T02:56:07.280Z,17.40
2018-06-28T02:58:34.804Z,17.40
2018-06-28T03:01:02.358Z,17.30
2018-06-28T03:03:30.600Z,17.60
2018-06-28T03:05:58.159Z,17.60
2018-06-28T03:08:26.483Z,17.50
2018-06-28T03:10:54.743Z,17.40
2018-06-28T03:13:23.005Z,17.30
2018-06-28T03:15:50.530Z,17.40
2018-06-28T03:18:18.018Z,17.40
2018-06-28T03:20:45.535Z,17.10
2018-06-28T03:23:13.784Z,16.90
2018-06-28T03:25:41.283Z,16.90
2018-06-28T03:28:09.563Z,16.80
2018-06-28T03:30:37.917Z,17.00
2018-06-28T03:33:06.181Z,17.10
2018-06-28T03:35:33.682Z,17.00
2018-06-28T03:38:02.009Z,17.10
2018-06-28T03:40:29.495Z,17.00
2018-06-28T03:42:56.950Z,16.90
2018-06-28T03:45:24.459Z,17.00
2018-06-28T03:47:51.907Z,16.70
2018-06-28T03:50:20.171Z,16.70
2018-06-28T03:52:47.668Z,16.70
2018-06-28T03:55:15.177Z,16.70
2018-06-28T03:57:42.694Z,16.60
2018-06-28T04:00:10.165Z,16.50
2018-06-28T04:02:37.617Z,16.80
2018-06-28T04:05:05.077Z,16.70
2018-06-28T04:07:32.563Z,16.60
2018-06-28T04:10:00.030Z,16.50
2018-06-28T04:12:27.495Z,16.60
2018-06-28T04:14:55.660Z,16.60
2018-06-28T04:17:23.113Z,16.90
2018-06-28T04:19:50.672Z,16.70
2018-06-28T04:22:18.136Z,16.60
2018-06-28T04:24:45.700Z,16.90
2018-06-28T04:27:13.209Z,16.70
2018-06-28T04:29:40.724Z,16.70
2018-06-28T04:32:08.192Z,16.60
2018-06-28T04:34:35.740Z,16.80
2018-06-28T04:37:03.972Z,16.60
2018-06-28T04:39:31.472Z,16.60
2018-06-28T04:41:59.756Z,16.70
2018-06-28T04:44:27.984Z,16.70
2018-06-28T04:46:55.512Z,16.70
2018-06-28T04:49:23.036Z,16.60
2018-06-28T04:51:50.496Z,16.60
2018-06-28T04:54:18.099Z,16.80
2018-06-28T04:56:45.569Z,16.90
2018-06-28T04:59:13.084Z,16.90
2018-06-28T05:01:40.641Z,16.90
2018-06-28T05:04:08.108Z,16.90
2018-06-28T05:06:35.564Z,17.00
2018-06-28T05:09:03.061Z,17.10
2018-06-28T05:11:30.498Z,17.10
2018-06-28T05:13:57.947Z,17.00
2018-06-28T05:16:25.417Z,17.10
2018-06-28T05:18:52.882Z,17.10
2018-06-28T05:21:20.813Z,17.30
2018-06-28T05:23:48.301Z,17.40
2018-06-28T05:26:15.748Z,17.30
2018-06-28T05:28:43.218Z,17.30
2018-06-28T05:31:10.700Z,17.50
2018-06-28T05:33:38.322Z,17.70
2018-06-28T05:36:06.412Z,17.80
2018-06-28T05:38:33.906Z,17.80
2018-06-28T05:41:01.375Z,17.80
2018-06-28T05:43:29.599Z,17.70
2018-06-28T05:45:57.110Z,17.70
2018-06-28T05:48:24.672Z,17.90
2018-06-28T05:50:52.125Z,17.90
2018-06-28T05:53:19.596Z,18.00
2018-06-28T05:55:47.052Z,18.00
2018-06-28T05:58:14.527Z,18.10
2018-06-28T06:00:42.003Z,18.10
2018-06-28T06:03:09.451Z,18.20
2018-06-28T06:05:36.911Z,18.10
2018-06-28T06:08:04.476Z,18.30
2018-06-28T06:10:32.023Z,18.30
2018-06-28T06:12:59.620Z,18.30
2018-06-28T06:15:27.061Z,18.40
2018-06-28T06:17:54.606Z,18.40
2018-06-28T06:20:22.122Z,18.50
2018-06-28T06:22:49.542Z,18.50
2018-06-28T06:25:17.084Z,18.60
2018-06-28T06:27:44.572Z,18.60
2018-06-28T06:30:12.135Z,18.70
2018-06-28T06:32:39.630Z,18.80
2018-06-28T06:35:07.095Z,19.00
2018-06-28T06:37:35.322Z,18.90
2018-06-28T06:40:02.787Z,18.90
2018-06-28T06:42:30.265Z,19.10
2018-06-28T06:44:57.732Z,19.20
2018-06-28T06:47:25.191Z,19.40
2018-06-28T06:49:52.655Z,19.50
2018-06-28T06:52:20.116Z,19.40
2018-06-28T06:54:47.579Z,19.60
2018-06-28T06:57:15.048Z,19.60
2018-06-28T06:59:42.517Z,19.50
2018-06-28T07:02:10.784Z,19.50
2018-06-28T07:04:38.236Z,19.50
2018-06-28T07:07:05.810Z,19.60
2018-06-28T07:09:33.270Z,19.80
2018-06-28T07:12:00.737Z,19.80
2018-06-28T07:14:28.210Z,19.90
2018-06-28T07:16:56.431Z,20.00
2018-06-28T07:19:23.933Z,20.00
2018-06-28T07:21:51.500Z,20.10
2018-06-28T07:24:19.053Z,20.10
2018-06-28T07:26:46.620Z,20.20
2018-06-28T07:29:14.204Z,20.40
2018-06-28T07:31:41.689Z,20.40
2018-06-28T07:34:10.051Z,20.50
2018-06-28T07:36:37.591Z,20.50
2018-06-28T07:39:05.056Z,20.90
2018-06-28T07:41:32.634Z,20.90
2018-06-28T07:44:01.648Z,20.90
2018-06-28T07:46:29.879Z,20.90
2018-06-28T07:48:58.240Z,20.90
2018-06-28T07:51:25.707Z,21.00
2018-06-28T07:53:53.187Z,21.20
2018-06-28T07:56:20.640Z,21.20
2018-06-28T07:58:48.125Z,21.10
2018-06-28T08:01:15.591Z,21.10
2018-06-28T08:03:43.061Z,21.20
2018-06-28T08:06:10.536Z,21.10
2018-06-28T08:08:38.787Z,21.40
2018-06-28T08:11:06.357Z,21.40
2018-06-28T08:13:33.805Z,21.40
2018-06-28T08:16:01.383Z,21.40
2018-06-28T08:18:28.852Z,21.60
2018-06-28T08:20:56.324Z,21.60
2018-06-28T08:23:23.779Z,21.60
2018-06-28T08:25:51.249Z,21.70
2018-06-28T08:28:19.525Z,22.20
2018-06-28T08:30:46.993Z,22.10
2018-06-28T08:33:14.447Z,22.70
2018-06-28T08:35:41.917Z,23.10
2018-06-28T08:38:09.380Z,23.40
2018-06-28T08:40:37.617Z,23.50
2018-06-28T08:43:05.080Z,23.40
2018-06-28T08:45:32.563Z,23.20
2018-06-28T08:48:00.037Z,23.50
2018-06-28T08:50:27.599Z,23.20
2018-06-28T08:52:55.085Z,23.00
2018-06-28T08:55:23.316Z,23.00
2018-06-28T08:57:50.913Z,23.00
2018-06-28T09:00:18.333Z,23.10
2018-06-28T09:02:45.828Z,23.00
2018-06-28T09:05:13.891Z,23.00
2018-06-28T09:07:42.575Z,23.30
2018-06-28T09:10:10.028Z,23.20
2018-06-28T09:12:37.491Z,23.40
2018-06-28T09:15:04.974Z,23.30
2018-06-28T09:17:32.540Z,23.30
2018-06-28T09:20:00.021Z,23.50
2018-06-28T09:22:29.251Z,23.30
2018-06-28T09:24:57.466Z,23.50
2018-06-28T09:27:24.931Z,23.50
2018-06-28T09:29:52.410Z,23.70
2018-06-28T09:32:19.973Z,24.00
2018-06-28T09:34:47.493Z,23.90
2018-06-28T09:37:14.946Z,24.00
2018-06-28T09:39:42.463Z,24.10
2018-06-28T09:42:10.040Z,24.20
2018-06-28T09:44:37.514Z,24.20
2018-06-28T09:47:05.740Z,24.20
2018-06-28T09:49:33.237Z,24.20
2018-06-28T09:52:00.800Z,24.20
2018-06-28T09:54:28.278Z,24.10
2018-06-28T09:56:56.512Z,24.00
2018-06-28T09:59:23.978Z,24.00
2018-06-28T10:01:51.429Z,24.10
2018-06-28T10:04:20.029Z,24.90
2018-06-28T10:06:47.513Z,24.80
2018-06-28T10:09:14.967Z,24.90
2018-06-28T10:11:43.588Z,24.90
2018-06-28T10:14:11.798Z,24.60
2018-06-28T10:16:39.261Z,24.60
2018-06-28T10:19:06.727Z,24.50
2018-06-28T10:21:35.346Z,24.40
2018-06-28T10:24:02.855Z,24.40
2018-06-28T10:26:31.791Z,24.70
2018-06-28T10:28:59.260Z,24.70
2018-06-28T10:31:26.750Z,24.80
2018-06-28T10:33:54.311Z,24.80
2018-06-28T10:36:21.773Z,24.70
2018-06-28T10:38:49.246Z,24.80
2018-06-28T10:41:17.509Z,25.20
2018-06-28T10:43:45.063Z,25.10
2018-06-28T10:46:12.537Z,24.90
2018-06-28T10:48:40.016Z,24.80
2018-06-28T10:51:08.256Z,24.90
2018-06-28T10:53:35.710Z,24.90
2018-06-28T10:56:03.179Z,25.10
2018-06-28T10:58:30.655Z,25.20
2018-06-28T11:00:58.115Z,25.30
2018-06-28T11:03:25.671Z,25.40
2018-06-28T11:05:53.157Z,25.50
2018-06-28T11:08:20.659Z,25.60
2018-06-28T11:10:48.850Z,25.60
2018-06-28T11:13:16.342Z,25.60
2018-06-28T11:15:44.634Z,25.50
2018-06-28T11:18:12.795Z,25.60
2018-06-28T11:20:40.260Z,25.50
2018-06-28T11:23:07.716Z,25.40
2018-06-28T11:25:35.192Z,25.70
2018-06-28T11:28:02.676Z,25.80
2018-06-28T11:30:31.649Z,25.80
2018-06-28T11:32:59.128Z,25.90
2018-06-28T11:35:26.625Z,25.90
2018-06-28T11:37:54.853Z,26.00
2018-06-28T11:40:22.320Z,26.00
2018-06-28T11:42:49.788Z,25.80
2018-06-28T11:45:17.265Z,25.60
2018-06-28T11:47:46.236Z,25.90
2018-06-28T11:50:13.683Z,25.90
2018-06-28T11:52:41.184Z,26.10
2018-06-28T11:55:08.734Z,26.10
2018-06-28T11:57:36.295Z,26.20
2018-06-28T12:00:03.866Z,26.40
2018-06-28T12:02:31.333Z,26.40
2018-06-28T12:04:58.789Z,26.40
2018-06-28T12:07:26.261Z,26.30
2018-06-28T12:09:53.713Z,26.30
2018-06-28T12:12:21.191Z,26.20
2018-06-28T12:14:48.652Z,25.80
2018-06-28T12:17:16.105Z,25.90
2018-06-28T12:19:43.649Z,26.10
2018-06-28T12:22:11.100Z,26.10
2018-06-28T12:24:38.573Z,26.10
2018-06-28T12:27:06.048Z,26.10
2018-06-28T12:29:33.512Z,26.10
2018-06-28T12:32:00.981Z,26.30
2018-06-28T12:34:30.492Z,26.50
2018-06-28T12:36:57.984Z,26.50
2018-06-28T12:39:26.232Z,26.60
2018-06-28T12:41:53.750Z,26.60
2018-06-28T12:44:21.201Z,26.60
2018-06-28T12:46:48.724Z,26.50
2018-06-28T12:49:16.203Z,26.60
2018-06-28T12:54:37.684Z,26.90
2018-06-28T12:57:05.284Z,26.90
2018-06-28T12:59:32.739Z,27.00
2018-06-28T13:02:00.189Z,27.00
2018-06-28T13:04:27.656Z,26.80
2018-06-28T13:06:55.107Z,26.90
2018-06-28T13:09:22.572Z,26.90
2018-06-28T13:11:50.030Z,26.80
2018-06-28T13:14:17.490Z,26.90
2018-06-28T13:16:44.969Z,26.90
2018-06-28T13:19:13.928Z,27.00
2018-06-28T13:21:41.425Z,26.90
2018-06-28T13:24:08.890Z,26.90
2018-06-28T13:26:36.332Z,27.00
2018-06-28T13:29:03.819Z,27.00
2018-06-28T13:31:32.841Z,27.10
2018-06-28T13:34:00.314Z,27.10
2018-06-28T13:36:28.549Z,27.10
2018-06-28T13:38:56.132Z,27.10
2018-06-28T13:41:23.798Z,27.00
2018-06-28T13:43:51.035Z,27.20
2018-06-28T13:46:18.547Z,27.10
2018-06-28T13:48:45.964Z,27.10
2018-06-28T13:51:13.532Z,27.00
2018-06-28T13:53:41.001Z,27.20
2018-06-28T13:56:09.229Z,27.20
2018-06-28T13:58:36.707Z,27.20
2018-06-28T14:01:04.208Z,27.20
2018-06-28T14:03:32.508Z,27.20
2018-06-28T14:06:01.768Z,27.10
2018-06-28T14:08:29.522Z,27.10
2018-06-28T14:10:56.994Z,27.30
2018-06-28T14:13:24.620Z,27.70
2018-06-28T14:15:52.900Z,27.00
2018-06-28T14:18:21.201Z,26.60
2018-06-28T14:20:48.671Z,26.60
2018-06-28T14:23:16.139Z,26.60
2018-06-28T14:25:43.615Z,27.40
2018-06-28T14:28:11.067Z,27.70
2018-06-28T14:30:38.520Z,27.70
2018-06-28T14:33:06.017Z,27.80
2018-06-28T14:35:33.578Z,27.90
2018-06-28T14:38:01.138Z,27.70
2018-06-28T14:40:28.605Z,28.00
2018-06-28T14:42:56.084Z,27.90
2018-06-28T14:45:23.543Z,27.80
2018-06-28T14:47:51.004Z,27.70
2018-06-28T14:50:18.522Z,27.80
2018-06-28T14:52:46.008Z,28.20
2018-06-28T14:55:13.487Z,27.80
2018-06-28T14:57:42.847Z,27.70
2018-06-28T15:00:10.312Z,27.70
2018-06-28T15:02:37.773Z,27.60
2018-06-28T15:05:05.285Z,27.90
2018-06-28T15:07:32.728Z,27.80
2018-06-28T15:10:00.305Z,27.70
2018-06-28T15:12:27.869Z,28.00
2018-06-28T15:14:56.127Z,28.10
2018-06-28T15:17:23.612Z,28.10
2018-06-28T15:19:52.203Z,28.40
2018-06-28T15:22:19.688Z,28.30
2018-06-28T15:24:47.920Z,27.90
2018-06-28T15:27:15.413Z,27.90
2018-06-28T15:29:42.889Z,27.20
2018-06-28T15:32:11.142Z,27.30
2018-06-28T15:34:38.707Z,27.30
2018-06-28T15:37:06.164Z,27.30
2018-06-28T15:39:33.624Z,27.30
2018-06-28T15:42:01.200Z,27.30
2018-06-28T15:44:28.660Z,27.20
2018-06-28T15:46:56.241Z,27.10
2018-06-28T15:49:24.459Z,27.20
2018-06-28T15:54:22.382Z,27.10
2018-06-28T15:56:49.922Z,27.10
2018-06-28T15:59:17.413Z,27.70
2018-06-28T16:01:44.886Z,27.90
2018-06-28T16:04:12.355Z,27.40
2018-06-28T16:06:39.813Z,28.10
2018-06-28T16:09:07.393Z,28.60
2018-06-28T16:11:34.855Z,29.00
2018-06-28T16:14:02.325Z,29.00
2018-06-28T16:16:30.576Z,29.10
2018-06-28T16:18:58.056Z,29.10
2018-06-28T16:21:25.605Z,28.90
2018-06-28T16:23:53.113Z,29.00
2018-06-28T16:26:20.639Z,29.10
2018-06-28T16:28:49.616Z,28.90
2018-06-28T16:31:17.197Z,28.90
2018-06-28T16:33:46.151Z,28.90
2018-06-28T16:36:13.658Z,28.90
2018-06-28T16:38:41.168Z,28.60
2018-06-28T16:41:08.683Z,28.80
2018-06-28T16:43:36.900Z,28.40
2018-06-28T16:46:04.365Z,28.40
2018-06-28T16:48:31.880Z,28.40
2018-06-28T16:50:59.355Z,28.00
2018-06-28T16:53:28.050Z,28.60
2018-06-28T16:55:56.064Z,28.60
2018-06-28T16:58:23.525Z,28.20
2018-06-28T17:00:50.996Z,28.20
2018-06-28T17:03:18.489Z,28.40
2018-06-28T17:05:46.059Z,28.50
2018-06-28T17:08:14.275Z,27.50
2018-06-28T17:10:42.507Z,26.50
2018-06-28T17:13:10.027Z,26.50
2018-06-28T17:15:38.242Z,25.90
2018-06-28T17:18:06.485Z,25.70
2018-06-28T17:20:34.761Z,25.70
2018-06-28T17:23:02.178Z,25.70
2018-06-28T17:25:29.621Z,25.80
2018-06-28T17:27:57.080Z,25.70
2018-06-28T17:30:24.533Z,25.90
2018-06-28T17:32:52.081Z,25.80
2018-06-28T17:35:19.475Z,25.60
2018-06-28T17:37:46.941Z,25.50
2018-06-28T17:40:14.468Z,25.30
2018-06-28T17:42:41.861Z,25.50
2018-06-28T17:45:09.353Z,25.50
2018-06-28T17:47:37.568Z,25.20
2018-06-28T17:50:05.031Z,25.20
2018-06-28T17:52:32.497Z,25.40
2018-06-28T17:57:28.835Z,25.10
2018-06-28T17:59:57.175Z,25.20
2018-06-28T18:02:24.632Z,25.20
2018-06-28T18:04:52.139Z,24.80
2018-06-28T18:07:20.277Z,24.90
2018-06-28T18:09:47.755Z,24.70
2018-06-28T18:12:15.969Z,25.20
2018-06-28T18:14:43.443Z,25.10
2018-06-28T18:17:10.903Z,25.10
2018-06-28T18:19:38.436Z,24.60
2018-06-28T18:22:05.896Z,24.50
2018-06-28T18:24:34.152Z,24.30
2018-06-28T18:27:01.616Z,24.30
2018-06-28T18:29:29.181Z,24.40
2018-06-28T18:31:56.637Z,24.10
2018-06-28T18:34:24.116Z,23.90
2018-06-28T18:36:51.599Z,24.30
2018-06-28T18:39:19.827Z,24.20
2018-06-28T18:41:47.293Z,24.20
2018-06-28T18:44:15.604Z,24.20
2018-06-28T18:46:43.071Z,24.20
2018-06-28T18:49:10.619Z,23.90
2018-06-28T18:51:38.105Z,23.60
2018-06-28T18:54:06.361Z,24.10
2018-06-28T18:56:33.842Z,24.10
2018-06-28T18:59:01.292Z,24.10
2018-06-28T19:01:28.848Z,24.30
2018-06-28T19:03:56.315Z,23.90
2018-06-28T19:06:23.826Z,24.30
2018-06-28T19:08:51.327Z,24.10
2018-06-28T19:11:18.796Z,24.00
2018-06-28T19:13:46.239Z,23.70
2018-06-28T19:16:19.427Z,23.30
2018-06-28T19:18:47.142Z,23.30
2018-06-28T19:21:15.415Z,23.20
2018-06-28T19:23:48.379Z,23.20
2018-06-28T19:26:15.868Z,23.20
2018-06-28T19:28:44.239Z,23.30
2018-06-28T19:31:32.532Z,23.30
2018-06-28T19:34:01.362Z,23.30
2018-06-28T19:36:28.933Z,23.10
2018-06-28T19:38:56.440Z,22.80
2018-06-28T19:41:40.653Z,23.20
2018-06-28T19:44:08.183Z,23.00
2018-06-28T19:46:35.657Z,23.70
2018-06-28T19:49:03.128Z,23.30
2018-06-28T19:51:50.392Z,23.10
2018-06-28T19:54:17.859Z,23.30
2018-06-28T19:56:45.327Z,23.30
2018-06-28T19:59:12.791Z,23.90
2018-06-28T20:01:56.985Z,23.60
2018-06-28T20:04:24.408Z,23.70
2018-06-28T20:06:51.869Z,23.00
2018-06-28T20:09:19.335Z,22.60
2018-06-28T20:11:46.795Z,22.60
2018-06-28T20:14:20.083Z,22.60
2018-06-28T20:20:00.589Z,23.10
2018-06-28T20:22:28.050Z,23.10
2018-06-28T20:24:55.520Z,23.00
2018-06-28T20:27:38.644Z,23.30
2018-06-28T20:30:26.444Z,22.60
2018-06-28T20:33:08.789Z,22.50
2018-06-28T20:35:36.316Z,22.40
2018-06-28T20:38:03.721Z,22.60
2018-06-28T20:40:31.190Z,22.90
2018-06-28T20:42:58.684Z,22.60
2018-06-28T20:45:26.519Z,22.50
2018-06-28T20:47:54.027Z,22.00
2018-06-28T20:50:21.486Z,22.00
2018-06-28T20:52:48.944Z,22.00
2018-06-28T20:55:16.504Z,22.00
2018-06-28T20:57:44.071Z,22.50
2018-06-28T21:00:11.528Z,22.80
2018-06-28T21:02:39.066Z,23.10
2018-06-28T21:05:06.452Z,22.90
2018-06-28T21:07:33.915Z,22.50
2018-06-28T21:10:01.572Z,21.90
2018-06-28T21:12:28.957Z,22.60
2018-06-28T21:14:56.426Z,22.60
2018-06-28T21:17:23.893Z,22.40
2018-06-28T21:19:51.387Z,22.10
2018-06-28T21:22:18.891Z,22.00
2018-06-28T21:24:46.452Z,21.90
2018-06-28T21:27:14.034Z,22.20
2018-06-28T21:29:42.253Z,22.20
2018-06-28T21:32:09.712Z,22.20
2018-06-28T21:34:37.177Z,22.40
2018-06-28T21:37:05.501Z,22.30
2018-06-28T21:39:32.949Z,22.30
2018-06-28T21:42:00.426Z,22.40
2018-06-28T21:44:27.903Z,21.90
2018-06-28T21:46:56.118Z,21.60
2018-06-28T21:49:23.600Z,21.60
2018-06-28T21:51:51.575Z,21.70
2018-06-28T21:54:19.031Z,21.40
2018-06-28T21:56:46.510Z,21.70
2018-06-28T21:59:13.978Z,21.90
2018-06-28T22:01:41.435Z,21.50
2018-06-28T22:04:08.907Z,21.80
2018-06-28T22:06:36.372Z,21.60
2018-06-28T22:09:03.831Z,21.30
2018-06-28T22:11:31.411Z,21.00
2018-06-28T22:13:58.967Z,21.20
2018-06-28T22:16:26.438Z,21.60
2018-06-28T22:18:53.887Z,21.60
2018-06-28T22:21:21.348Z,21.70
2018-06-28T22:23:48.819Z,21.10
2018-06-28T22:26:16.381Z,21.00
2018-06-28T22:28:43.840Z,21.30
2018-06-28T22:31:11.406Z,21.10
2018-06-28T22:33:38.975Z,20.50
2018-06-28T22:36:06.431Z,21.30
2018-06-28T22:38:34.004Z,20.80
2018-06-28T22:41:01.472Z,20.80
2018-06-28T22:43:29.699Z,20.60
2018-06-28T22:45:57.207Z,20.60
2018-06-28T22:48:25.487Z,20.40
2018-06-28T22:50:52.963Z,20.40
2018-06-28T22:53:20.440Z,21.10
2018-06-28T22:55:48.669Z,20.70
2018-06-28T22:58:16.598Z,20.60
2018-06-28T23:00:44.827Z,21.60
2018-06-28T23:03:12.294Z,21.60
2018-06-28T23:05:39.751Z,21.60
2018-06-28T23:08:07.215Z,21.00
2018-06-28T23:10:34.692Z,20.70
2018-06-28T23:13:02.927Z,20.10
2018-06-28T23:15:31.160Z,20.50
2018-06-28T23:17:58.623Z,20.40
2018-06-28T23:20:27.604Z,20.40
2018-06-28T23:22:55.060Z,20.40
2018-06-28T23:25:22.515Z,20.40
2018-06-28T23:27:49.976Z,20.50
2018-06-28T23:30:17.554Z,20.50
2018-06-28T23:32:45.112Z,20.10
2018-06-28T23:35:12.685Z,19.90
2018-06-28T23:37:40.239Z,19.80
2018-06-28T23:40:07.714Z,19.70
2018-06-28T23:42:35.168Z,19.40
2018-06-28T23:45:02.629Z,19.30
2018-06-28T23:47:30.120Z,19.40
2018-06-28T23:49:58.341Z,19.30
2018-06-28T23:52:25.803Z,19.30
2018-06-28T23:54:53.259Z,19.40
2018-06-28T23:57:20.717Z,19.30
2018-06-28T23:59:48.181Z,19.50
